Time;durP1;ratioP1;P1;durP2;ratioP2;P2;SDS_P1;SDS_P2;PMS_P1;PMS_P2;Temp;Humidity;BMP_temperature;BMP_pressure;BME280_temperature;BME280_humidity;BME280_pressure;Samples;Min_cycle;Max_cycle;Signal;HPM_P1;HPM_P2
2022/08/18 00:03:12;;;;;;;12.88;11.35;;;22.00;10.50;;;;;;10351362;28;20195;-78
2022/08/18 00:08:33;;;;;;;12.38;11.18;;;22.00;1.00;;;;;;10316351;28;20206;-79
2022/08/18 00:13:58;;;;;;;13.30;12.00;;;21.90;12.10;;;;;;10317318;28;20199;-77
2022/08/18 00:19:21;;;;;;;14.60;12.32;;;21.90;23.60;;;;;;10332101;28;20531;-78
2022/08/18 00:24:45;;;;;;;16.38;11.93;;;21.90;40.30;;;;;;10316757;28;20199;-77
2022/08/18 00:30:13;;;;;;;14.77;12.05;;;21.80;67.30;;;;;;10337337;28;20248;-77
2022/08/18 00:35:37;;;;;;;13.55;12.15;;;21.70;71.40;;;;;;10379869;28;20209;-77
2022/08/18 00:41:00;;;;;;;13.68;12.15;;;21.80;61.70;;;;;;10382364;28;20445;-77
2022/08/18 00:46:32;;;;;;;14.35;12.00;;;21.70;80.80;;;;;;10379089;28;20201;-77
2022/08/18 00:51:53;;;;;;;15.70;12.98;;;21.70;77.10;;;;;;10386555;28;20222;-77
2022/08/18 00:57:20;;;;;;;14.95;13.45;;;21.70;70.30;;;;;;10348197;28;20205;-77
2022/08/18 01:02:49;;;;;;;14.80;12.38;;;21.60;89.20;;;;;;10321912;28;20199;-80
2022/08/18 01:08:15;;;;;;;13.45;11.18;;;21.50;49.30;;;;;;10315265;28;20249;-76
2022/08/18 01:13:40;;;;;;;14.55;11.43;;;21.50;47.40;;;;;;10314651;28;20403;-76
2022/08/18 01:30:24;;;;;;;14.25;12.52;;;21.30;68.40;;;;;;10339696;28;20263;-77
2022/08/18 01:35:48;;;;;;;18.08;12.07;;;21.30;89.60;;;;;;10395737;28;20231;-76
2022/08/18 01:41:09;;;;;;;12.70;11.50;;;21.30;99.90;;;;;;10395557;28;20203;-76
2022/08/18 01:46:34;;;;;;;13.75;12.18;;;21.40;99.90;;;;;;10377970;28;20208;-77
2022/08/18 01:51:55;;;;;;;13.52;12.15;;;21.30;99.90;;;;;;10384375;28;20227;-76
2022/08/18 01:57:18;;;;;;;14.98;12.63;;;21.30;99.90;;;;;;10320384;28;20201;-77
2022/08/18 02:02:40;;;;;;;14.65;13.15;;;21.30;99.90;;;;;;10360423;28;20289;-76
2022/08/18 02:08:03;;;;;;;14.43;12.80;;;21.20;98.80;;;;;;10307662;28;20190;-76
2022/08/18 02:13:25;;;;;;;14.38;12.43;;;21.20;99.90;;;;;;10322213;28;20194;-76
2022/08/18 02:18:47;;;;;;;14.55;12.88;;;21.00;99.90;;;;;;10321668;28;20194;-76
2022/08/18 02:24:08;;;;;;;14.48;12.30;;;21.00;99.90;;;;;;10321575;28;20194;-77
2022/08/18 02:29:30;;;;;;;15.90;13.18;;;21.00;99.90;;;;;;10329911;28;20236;-79
2022/08/18 02:34:51;;;;;;;13.85;12.45;;;21.00;99.90;;;;;;10401938;28;20193;-77
2022/08/18 02:40:14;;;;;;;15.88;13.48;;;21.00;99.90;;;;;;10384350;28;20201;-76
2022/08/18 02:45:38;;;;;;;14.90;12.98;;;20.80;99.90;;;;;;10401664;28;20197;-76
2022/08/18 02:51:00;;;;;;;20.40;13.52;;;20.80;99.90;;;;;;10383608;28;20229;-76
2022/08/18 02:56:23;;;;;;;13.43;12.00;;;20.80;95.30;;;;;;10357766;28;20213;-76
2022/08/18 03:01:50;;;;;;;13.60;11.98;;;20.70;91.60;;;;;;10360541;28;20568;-76
2022/08/18 03:07:11;;;;;;;16.45;12.52;;;20.60;99.90;;;;;;10334076;28;20270;-77
2022/08/18 03:12:33;;;;;;;13.93;12.07;;;20.70;99.90;;;;;;10319859;28;20532;-77
2022/08/18 03:17:55;;;;;;;13.77;11.85;;;20.70;99.90;;;;;;10319559;28;20245;-80
2022/08/18 03:23:17;;;;;;;16.10;12.75;;;20.70;99.90;;;;;;10319485;28;20202;-78
2022/08/18 03:28:41;;;;;;;13.48;11.38;;;20.60;99.90;;;;;;10318859;28;20238;-78
2022/08/18 03:34:03;;;;;;;14.68;11.80;;;20.50;99.90;;;;;;10318767;28;20195;-78
2022/08/18 03:39:26;;;;;;;21.33;14.63;;;20.60;99.90;;;;;;10319052;28;20202;-77
2022/08/18 03:44:48;;;;;;;15.23;13.52;;;20.60;99.90;;;;;;10318411;28;20190;-77
2022/08/18 03:50:09;;;;;;;15.23;13.73;;;20.60;99.90;;;;;;10317903;28;20230;-78
2022/08/18 03:55:31;;;;;;;13.70;12.23;;;20.60;99.90;;;;;;10336375;28;20204;-77
2022/08/18 04:00:53;;;;;;;14.93;12.88;;;20.70;99.90;;;;;;10327259;28;20206;-77
2022/08/18 04:06:20;;;;;;;15.63;12.30;;;20.70;99.90;;;;;;10326242;28;20238;-79
2022/08/18 04:11:43;;;;;;;13.25;11.85;;;20.90;99.90;;;;;;10317469;28;20470;-78
2022/08/18 04:17:09;;;;;;;14.35;11.40;;;20.90;99.90;;;;;;10317343;28;20194;-76
2022/08/18 04:22:32;;;;;;;13.38;11.10;;;21.00;99.90;;;;;;10316252;28;20210;-77
2022/08/18 04:27:56;;;;;;;12.40;11.10;;;21.20;99.90;;;;;;10316731;28;20293;-79
2022/08/18 04:33:18;;;;;;;13.23;11.77;;;21.30;99.90;;;;;;10376829;28;20221;-79
2022/08/18 04:39:05;;;;;;;12.68;11.43;;;21.30;99.90;;;;;;10382384;28;20189;-76
2022/08/18 04:44:45;;;;;;;12.38;11.18;;;21.40;99.90;;;;;;10397319;28;20197;-77
2022/08/18 04:50:07;;;;;;;11.43;10.32;;;21.40;99.90;;;;;;10396759;28;20221;-77
2022/08/18 04:55:28;;;;;;;12.02;10.50;;;21.50;99.90;;;;;;10329516;28;20206;-77
2022/08/18 05:00:59;;;;;;;10.80;9.73;;;21.50;99.90;;;;;;10327790;28;20268;-79
2022/08/18 05:06:24;;;;;;;11.80;10.55;;;21.70;99.90;;;;;;10300750;28;20230;-78
2022/08/18 05:11:45;;;;;;;12.38;10.13;;;21.70;99.90;;;;;;10315441;28;20218;-77
2022/08/18 05:17:07;;;;;;;11.20;10.10;;;22.00;99.90;;;;;;10314884;28;20500;-78
2022/08/18 05:22:29;;;;;;;12.77;9.75;;;22.10;99.90;;;;;;10315112;28;20225;-77
2022/08/18 05:27:51;;;;;;;14.75;10.45;;;22.20;99.90;;;;;;10314700;28;20485;-77
2022/08/18 05:33:12;;;;;;;19.13;12.90;;;22.30;99.90;;;;;;10393504;28;20252;-78
2022/08/18 05:38:41;;;;;;;20.60;13.82;;;22.40;99.90;;;;;;10404160;28;20236;-77
2022/08/18 05:44:02;;;;;;;20.77;15.27;;;22.50;99.90;;;;;;10386434;28;20408;-76
2022/08/18 05:49:26;;;;;;;18.52;15.45;;;22.60;99.90;;;;;;10389148;28;20405;-78
2022/08/18 06:00:32;;;;;;;18.80;12.93;;;22.80;99.90;;;;;;10331494;28;20202;-81
2022/08/18 06:06:00;;;;;;;18.33;14.90;;;23.00;99.90;;;;;;10333825;28;20194;-77
2022/08/18 06:11:21;;;;;;;13.25;11.95;;;23.10;99.90;;;;;;10321822;28;20273;-78
2022/08/18 06:17:10;;;;;;;14.68;13.10;;;23.20;99.90;;;;;;10321029;28;20202;-77
2022/08/18 06:22:38;;;;;;;16.05;13.32;;;23.40;99.90;;;;;;10321654;28;20198;-77
2022/08/18 06:28:12;;;;;;;18.80;13.32;;;23.80;64.60;;;;;;10321060;28;20234;-77
2022/08/18 06:33:45;;;;;;;15.15;12.45;;;24.30;23.40;;;;;;10383463;28;20229;-77
2022/08/18 06:39:33;;;;;;;14.05;10.73;;;24.80;1.00;;;;;;10401761;28;20236;-78
2022/08/18 06:45:11;;;;;;;13.00;11.70;;;25.90;1.00;;;;;;10382694;28;20501;-77
2022/08/18 06:50:39;;;;;;;16.40;11.65;;;26.00;1.00;;;;;;10401313;28;20289;-78
2022/08/18 06:56:31;;;;;;;18.63;12.15;;;26.30;1.00;;;;;;10343665;28;20276;-77
2022/08/18 07:02:03;;;;;;;15.70;11.90;;;26.80;1.00;;;;;;10345566;28;20441;-77
2022/08/18 07:07:32;;;;;;;14.52;11.00;;;26.90;1.00;;;;;;10342613;28;20228;-78
2022/08/18 07:13:25;;;;;;;11.85;10.27;;;27.10;1.00;;;;;;10359487;28;20289;-77
2022/08/18 07:19:15;;;;;;;13.30;10.70;;;27.30;1.00;;;;;;10359905;28;20446;-80
2022/08/18 07:24:44;;;;;;;15.93;11.15;;;27.80;1.00;;;;;;10359665;28;20249;-78
2022/08/18 07:30:06;;;;;;;15.13;12.32;;;27.90;1.00;;;;;;10368205;28;20236;-77
2022/08/18 07:35:41;;;;;;;14.63;12.95;;;27.90;1.00;;;;;;10399089;28;20200;-77
2022/08/18 07:41:26;;;;;;;13.10;10.63;;;28.10;1.00;;;;;;10398926;28;20193;-77
2022/08/18 07:46:53;;;;;;;11.30;10.20;;;28.50;1.00;;;;;;10398886;28;20193;-78
2022/08/18 07:52:28;;;;;;;13.35;12.07;;;28.70;1.00;;;;;;10365029;28;20517;-81
2022/08/18 07:57:52;;;;;;;14.38;12.35;;;28.80;1.00;;;;;;10354449;28;20261;-77
2022/08/18 08:03:32;;;;;;;13.60;10.82;;;29.00;1.00;;;;;;10350117;28;20269;-79
2022/08/18 08:09:02;;;;;;;12.73;11.10;;;29.50;1.00;;;;;;10317292;28;20489;-77
2022/08/18 08:14:43;;;;;;;16.10;14.15;;;30.20;1.00;;;;;;10316511;28;20273;-77
2022/08/18 08:20:22;;;;;;;14.18;12.55;;;30.60;88.20;;;;;;10317125;28;20367;-78
2022/08/18 08:33:52;;;;;;;14.07;11.00;;;31.60;81.30;;;;;;9405200;28;20436;-77
2022/08/18 08:39:29;;;;;;;15.27;12.15;;;32.40;70.20;;;;;;10312463;28;20210;-78
2022/08/18 08:44:58;;;;;;;14.75;11.30;;;32.70;64.10;;;;;;10312369;28;20202;-79
2022/08/18 08:50:26;;;;;;;17.85;10.95;;;32.60;59.50;;;;;;10312172;28;20245;-79
2022/08/18 08:55:52;;;;;;;15.00;10.73;;;32.90;54.30;;;;;;10275260;28;20246;-77
2022/08/18 09:01:34;;;;;;;15.30;10.20;;;32.80;55.20;;;;;;10292239;28;20253;-81
2022/08/18 09:07:13;;;;;;;14.30;9.35;;;33.20;51.50;;;;;;10292778;28;20617;-80
2022/08/18 09:13:15;;;;;;;12.57;9.27;;;33.80;45.10;;;;;;10275146;29;20235;-78
2022/08/18 09:18:58;;;;;;;14.13;8.95;;;34.40;38.80;;;;;;10275098;29;20344;-78
2022/08/18 09:24:25;;;;;;;13.45;7.97;;;34.50;30.80;;;;;;10274710;29;20269;-77
2022/08/18 09:29:56;;;;;;;10.65;8.68;;;34.70;27.10;;;;;;10305009;28;20284;-79
2022/08/18 09:35:46;;;;;;;15.65;8.55;;;35.00;25.30;;;;;;10377891;28;20276;-78
2022/08/18 09:41:31;;;;;;;15.93;9.60;;;34.90;25.30;;;;;;10231390;29;20208;-78
2022/08/18 09:46:55;;;;;;;15.98;8.85;;;34.90;24.60;;;;;;10231437;29;20267;-77
2022/08/18 09:52:21;;;;;;;12.75;8.70;;;34.80;22.80;;;;;;10209970;29;20268;-79
2022/08/18 09:57:46;;;;;;;16.77;8.93;;;35.00;22.70;;;;;;10191956;29;20444;-81
2022/08/18 10:03:16;;;;;;;10.23;8.05;;;35.50;21.70;;;;;;10198102;29;20487;-81
2022/08/18 10:08:54;;;;;;;13.50;8.27;;;35.80;19.40;;;;;;10230697;29;20200;-78
2022/08/18 10:14:52;;;;;;;12.02;8.13;;;36.20;17.40;;;;;;10241361;28;20238;-78
2022/08/18 10:20:29;;;;;;;10.98;7.78;;;36.50;13.40;;;;;;10360324;28;20383;-78
2022/08/18 10:25:51;;;;;;;10.23;8.50;;;36.30;11.60;;;;;;10361535;28;20190;-78
2022/08/18 10:31:12;;;;;;;12.30;8.35;;;36.40;6.70;;;;;;10364884;28;20267;-77
2022/08/18 10:36:43;;;;;;;9.70;8.25;;;36.70;1.00;;;;;;10401676;28;20208;-78
2022/08/18 10:42:05;;;;;;;15.27;9.10;;;36.60;1.00;;;;;;10387429;28;20201;-78
2022/08/18 10:47:29;;;;;;;13.00;8.23;;;36.50;1.00;;;;;;10401787;28;20216;-78
2022/08/18 10:53:23;;;;;;;13.18;8.10;;;36.40;1.00;;;;;;10375947;28;20268;-79
2022/08/18 10:59:08;;;;;;;12.00;8.30;;;36.80;1.00;;;;;;10142798;29;20217;-78
2022/08/18 11:04:40;;;;;;;8.77;7.88;;;37.10;1.00;;;;;;10174919;29;20201;-78
2022/08/18 11:10:17;;;;;;;10.80;8.60;;;36.10;1.00;;;;;;10197368;29;20305;-77
2022/08/18 11:16:26;;;;;;;9.10;8.20;;;35.90;1.00;;;;;;10197269;29;20216;-78
2022/08/18 11:21:51;;;;;;;12.10;8.88;;;36.10;1.00;;;;;;10196886;29;20209;-76
2022/08/18 11:27:36;;;;;;;11.98;7.93;;;36.10;1.00;;;;;;10196609;29;20215;-76
2022/08/18 11:32:59;;;;;;;9.73;8.05;;;36.30;1.00;;;;;;10300695;28;20228;-77
2022/08/18 11:38:21;;;;;;;7.80;7.00;;;36.80;1.00;;;;;;10399385;28;20244;-76
2022/08/18 11:43:42;;;;;;;11.43;7.10;;;37.00;1.00;;;;;;10399401;28;20189;-77
2022/08/18 11:49:24;;;;;;;11.00;6.57;;;37.10;1.00;;;;;;10398916;28;20375;-77
2022/08/18 11:54:49;;;;;;;9.10;6.18;;;37.10;1.00;;;;;;10355187;28;20233;-76
2022/08/18 12:00:41;;;;;;;12.05;6.85;;;37.40;1.00;;;;;;10358033;28;20220;-80
2022/08/18 12:06:33;;;;;;;12.27;7.85;;;37.20;1.00;;;;;;10327726;28;20468;-78
2022/08/18 12:12:00;;;;;;;8.13;6.22;;;37.20;1.00;;;;;;10310545;28;20245;-77
2022/08/18 12:17:22;;;;;;;8.15;5.93;;;37.00;1.00;;;;;;10316964;28;20194;-78
2022/08/18 12:22:47;;;;;;;8.95;6.30;;;36.90;1.00;;;;;;10316933;28;20205;-77
2022/08/18 12:28:09;;;;;;;8.73;5.68;;;36.60;1.00;;;;;;10316734;28;20221;-76
2022/08/18 12:33:31;;;;;;;6.47;5.88;;;36.20;1.00;;;;;;10378461;28;20248;-76
2022/08/18 12:38:52;;;;;;;7.65;6.45;;;35.60;1.00;;;;;;10397822;28;20189;-76
2022/08/18 12:44:14;;;;;;;10.20;6.35;;;35.50;1.00;;;;;;10378667;28;20496;-76
2022/08/18 12:49:35;;;;;;;9.90;6.70;;;35.30;1.00;;;;;;10379581;28;20200;-76
2022/08/18 12:54:57;;;;;;;11.75;6.95;;;35.00;1.00;;;;;;10333664;28;20284;-78
2022/08/18 13:00:19;;;;;;;10.52;7.68;;;34.60;1.00;;;;;;10341070;28;20193;-78
2022/08/18 13:05:41;;;;;;;10.45;7.55;;;34.60;1.00;;;;;;10328724;28;20193;-78
2022/08/18 13:11:09;;;;;;;8.07;6.65;;;34.60;1.00;;;;;;10315188;28;20229;-78
2022/08/18 13:16:32;;;;;;;9.93;7.40;;;34.30;1.00;;;;;;10329866;28;20202;-78
2022/08/18 13:21:54;;;;;;;7.97;6.93;;;34.30;1.00;;;;;;10330084;28;20207;-79
2022/08/18 13:27:19;;;;;;;8.98;7.65;;;34.40;1.00;;;;;;10314886;28;20253;-78
2022/08/18 13:32:41;;;;;;;15.52;6.15;;;;;;;;;;10376822;28;20240;-78
2022/08/18 13:38:05;;;;;;;7.22;5.60;;;33.90;1.00;;;;;;10395749;28;20243;-78
2022/08/18 13:43:32;;;;;;;8.00;6.65;;;33.90;1.00;;;;;;10395671;28;20201;-78
2022/08/18 13:48:56;;;;;;;8.45;7.53;;;33.80;1.00;;;;;;10380969;28;20189;-78
2022/08/18 13:54:25;;;;;;;7.70;6.72;;;33.60;1.00;;;;;;10345542;28;20226;-78
2022/08/18 13:59:50;;;;;;;8.18;7.10;;;33.50;1.00;;;;;;10360677;28;20218;-78
2022/08/18 14:05:11;;;;;;;11.48;7.63;;;33.50;1.00;;;;;;10324665;28;20197;-78
2022/08/18 14:10:32;;;;;;;7.78;6.97;;;33.20;1.00;;;;;;10321637;28;20210;-78
2022/08/18 14:15:56;;;;;;;7.50;6.63;;;32.90;1.00;;;;;;10321258;28;20412;-78
2022/08/18 14:26:56;;;;;;;7.22;6.30;;;32.70;1.00;;;;;;10335945;28;20229;-78
2022/08/18 14:32:25;;;;;;;10.25;6.65;;;32.60;1.00;;;;;;10376263;28;20249;-78
2022/08/18 14:37:47;;;;;;;10.35;8.05;;;32.20;1.00;;;;;;10386549;28;20264;-78
2022/08/18 14:43:10;;;;;;;9.45;6.88;;;32.00;1.00;;;;;;10369871;28;20228;-78
2022/08/18 14:48:31;;;;;;;8.88;6.78;;;31.90;1.00;;;;;;10383111;28;20410;-78
2022/08/18 14:53:53;;;;;;;8.70;6.93;;;31.90;99.90;;;;;;10349140;28;20222;-78
2022/08/18 14:59:15;;;;;;;7.40;6.30;;;31.90;1.00;;;;;;10360375;28;20196;-77
2022/08/18 15:04:37;;;;;;;11.20;6.32;;;31.90;99.90;;;;;;10341319;28;20199;-77
2022/08/18 15:09:59;;;;;;;10.25;7.93;;;31.90;1.00;;;;;;10334654;28;20202;-78
2022/08/18 15:15:20;;;;;;;9.85;6.90;;;31.90;1.00;;;;;;10319850;28;20189;-77
2022/08/18 15:26:23;;;;;;;18.65;14.07;;;;;;;;;;10318729;28;20191;-77
2022/08/18 15:31:45;;;;;;;8.93;7.78;;;31.40;1.00;;;;;;10365070;28;20237;-78
2022/08/18 15:37:10;;;;;;;15.20;12.27;;;31.20;1.00;;;;;;10399552;28;20193;-79
2022/08/18 15:42:31;;;;;;;25.50;17.63;;;31.10;20.80;;;;;;10399047;28;20419;-78
2022/08/18 15:47:54;;;;;;;27.38;18.83;;;30.80;99.90;;;;;;10399211;28;20268;-77
2022/08/18 15:53:18;;;;;;;14.27;12.45;;;30.60;1.00;;;;;;10367260;28;20230;-78
2022/08/18 15:58:40;;;;;;;28.23;17.27;;;30.30;1.00;;;;;;10343860;28;20201;-78
2022/08/18 16:04:05;;;;;;;12.50;8.77;;;30.20;1.00;;;;;;10344769;28;20273;-78
2022/08/18 16:09:26;;;;;;;12.50;8.52;;;30.10;1.00;;;;;;10332403;28;20214;-77
2022/08/18 16:14:51;;;;;;;12.73;9.82;;;30.00;1.00;;;;;;10317256;28;20217;-77
2022/08/18 16:20:13;;;;;;;18.85;10.88;;;29.90;1.00;;;;;;10316578;28;20204;-77
2022/08/18 16:25:40;;;;;;;11.23;9.75;;;29.70;99.90;;;;;;10302124;28;20426;-78
2022/08/18 16:31:02;;;;;;;18.02;11.00;;;29.60;99.90;;;;;;10352105;28;20237;-77
2022/08/18 16:36:24;;;;;;;18.20;10.90;;;29.50;99.90;;;;;;10397362;28;20213;-77
2022/08/18 16:41:46;;;;;;;12.00;9.90;;;29.40;1.00;;;;;;10397033;28;20189;-78
2022/08/18 16:47:07;;;;;;;17.75;11.50;;;29.30;99.90;;;;;;10397264;28;20496;-78
2022/08/18 16:52:32;;;;;;;12.68;10.07;;;29.30;1.00;;;;;;10362685;28;20236;-78
2022/08/18 17:09:16;;;;;;;19.05;9.60;;;28.90;1.00;;;;;;10315778;28;20381;-77
2022/08/18 17:14:37;;;;;;;10.45;8.70;;;28.80;1.00;;;;;;10315454;28;20222;-80
2022/08/18 17:19:59;;;;;;;12.75;9.60;;;28.70;1.00;;;;;;10314903;28;20191;-78
2022/08/18 17:25:24;;;;;;;10.75;9.52;;;28.60;1.00;;;;;;10330188;28;20203;-78
2022/08/18 17:30:50;;;;;;;11.13;8.63;;;28.50;99.90;;;;;;10345462;28;20249;-78
2022/08/18 17:36:27;;;;;;;10.90;9.05;;;28.30;99.90;;;;;;10395516;28;20196;-77
2022/08/18 17:47:40;;;;;;;14.88;9.60;;;28.10;99.90;;;;;;10395520;28;20201;-81
2022/08/18 17:53:04;;;;;;;14.70;10.57;;;27.90;1.00;;;;;;10349451;28;20230;-77
2022/08/18 17:58:38;;;;;;;11.93;9.88;;;27.70;99.90;;;;;;10314273;28;20489;-77
2022/08/18 18:03:59;;;;;;;12.02;9.75;;;27.60;99.90;;;;;;10327149;28;20197;-77
2022/08/18 18:09:20;;;;;;;16.60;13.63;;;27.50;1.00;;;;;;10353488;28;20453;-77
2022/08/18 18:14:43;;;;;;;13.18;9.73;;;27.40;8.70;;;;;;10354475;28;20284;-77
2022/08/18 18:20:13;;;;;;;13.77;10.18;;;27.20;99.90;;;;;;10339885;28;20201;-78
2022/08/18 18:25:34;;;;;;;10.43;8.50;;;27.10;99.90;;;;;;10353437;28;20237;-77
2022/08/18 18:30:58;;;;;;;13.43;9.18;;;27.00;1.00;;;;;;10341461;28;20304;-77
2022/08/18 18:36:35;;;;;;;13.40;8.25;;;26.90;1.00;;;;;;10376623;28;20276;-77
2022/08/18 18:42:31;;;;;;;9.02;8.13;;;26.90;1.00;;;;;;10382622;28;20272;-77
2022/08/18 18:48:12;;;;;;;9.88;8.27;;;26.80;1.00;;;;;;10237287;29;20408;-77
2022/08/18 18:53:59;;;;;;;11.50;7.68;;;26.70;1.00;;;;;;10203250;29;20287;-77
2022/08/18 18:59:51;;;;;;;9.55;7.80;;;26.50;1.00;;;;;;10181797;29;20200;-78
2022/08/18 19:05:28;;;;;;;11.30;8.05;;;26.50;1.00;;;;;;10217008;29;20236;-77
2022/08/18 19:11:12;;;;;;;14.07;10.15;;;26.40;1.00;;;;;;10236586;29;20243;-77
2022/08/18 19:16:40;;;;;;;17.80;11.55;;;26.30;1.00;;;;;;10236336;29;20469;-77
2022/08/18 19:22:21;;;;;;;18.67;9.30;;;26.20;92.00;;;;;;10290068;28;20213;-77
2022/08/18 19:27:59;;;;;;;9.68;7.72;;;26.00;99.90;;;;;;10359857;28;20198;-77
2022/08/18 19:33:26;;;;;;;11.40;7.88;;;26.00;99.90;;;;;;10394164;28;20241;-77
2022/08/18 19:38:54;;;;;;;11.00;7.60;;;25.90;99.90;;;;;;10385111;28;20260;-77
2022/08/18 19:44:30;;;;;;;13.90;7.50;;;25.80;99.90;;;;;;10399350;28;20268;-77
2022/08/18 19:50:13;;;;;;;11.20;7.13;;;25.80;99.90;;;;;;10398845;28;20236;-76
2022/08/18 19:56:11;;;;;;;12.20;7.63;;;25.70;99.90;;;;;;10348602;28;20232;-77
2022/08/18 20:01:53;;;;;;;9.05;6.95;;;;;;;;;;10356736;28;20243;-77
2022/08/18 20:07:14;;;;;;;9.00;7.47;;;;;;;;;;10318583;28;20195;-77
2022/08/18 20:12:48;;;;;;;9.65;7.90;;;;;;;;;;10317722;28;20555;-77
2022/08/18 20:18:22;;;;;;;10.40;7.55;;;25.50;99.90;;;;;;10302775;28;20208;-78
2022/08/18 20:23:56;;;;;;;9.82;8.00;;;;;;;;;;10317123;28;20199;-77
2022/08/18 20:29:38;;;;;;;10.50;8.07;;;25.40;99.90;;;;;;10295744;28;20244;-77
2022/08/18 20:35:24;;;;;;;9.40;7.63;;;25.30;99.90;;;;;;10394738;28;20248;-77
2022/08/18 20:40:48;;;;;;;7.75;6.68;;;25.40;99.90;;;;;;10382459;28;20217;-77
2022/08/18 20:46:19;;;;;;;10.23;7.57;;;25.50;99.90;;;;;;10365749;28;20201;-77
2022/08/18 20:51:48;;;;;;;10.02;6.85;;;25.30;99.90;;;;;;10375812;28;20415;-77
2022/08/18 20:57:11;;;;;;;10.93;7.82;;;25.20;99.90;;;;;;10332908;28;20426;-77
2022/08/18 21:02:39;;;;;;;8.95;7.30;;;25.00;99.90;;;;;;10336339;28;20201;-77
2022/08/18 21:08:30;;;;;;;8.35;6.75;;;25.00;99.90;;;;;;10315711;28;20442;-77
2022/08/18 21:13:55;;;;;;;8.35;6.50;;;24.80;99.90;;;;;;10314189;28;20305;-76
2022/08/18 21:19:18;;;;;;;8.40;6.25;;;24.80;99.90;;;;;;10314224;28;20211;-77
2022/08/18 21:24:42;;;;;;;8.38;6.80;;;24.70;99.90;;;;;;10315453;28;20221;-77
2022/08/18 21:30:14;;;;;;;10.02;7.15;;;24.70;99.90;;;;;;10317806;28;20307;-76
2022/08/18 21:35:36;;;;;;;10.35;6.47;;;24.60;99.90;;;;;;10395731;28;20228;-77
2022/08/18 21:40:59;;;;;;;7.35;6.53;;;24.60;99.90;;;;;;10395445;28;20506;-79
2022/08/18 21:46:28;;;;;;;7.28;6.07;;;24.60;99.90;;;;;;10395878;28;20193;-77
2022/08/18 21:51:50;;;;;;;9.73;5.88;;;24.50;99.90;;;;;;10386856;28;20551;-81
2022/08/18 21:57:21;;;;;;;6.68;6.00;;;24.50;99.90;;;;;;10346508;28;20552;-77
2022/08/18 22:02:44;;;;;;;10.77;5.85;;;24.40;1.00;;;;;;10351892;28;20275;-77
2022/08/18 22:08:13;;;;;;;9.00;5.82;;;24.40;1.00;;;;;;10313447;28;20489;-77
2022/08/18 22:13:57;;;;;;;7.90;5.78;;;24.30;1.00;;;;;;10316390;28;20532;-77
2022/08/18 22:19:18;;;;;;;8.98;5.93;;;24.30;1.00;;;;;;10321292;28;20191;-79
2022/08/18 22:24:39;;;;;;;7.07;5.97;;;24.20;1.00;;;;;;10321987;28;20507;-76
2022/08/18 22:30:04;;;;;;;6.72;5.63;;;24.20;1.00;;;;;;10355644;28;20229;-77
2022/08/18 22:35:26;;;;;;;5.65;5.15;;;24.20;1.00;;;;;;10402363;28;20235;-80
2022/08/18 22:40:48;;;;;;;6.93;5.22;;;24.10;1.00;;;;;;10402002;28;20193;-77
2022/08/18 22:46:10;;;;;;;6.72;5.88;;;24.00;1.00;;;;;;10387270;28;20194;-78
2022/08/18 22:51:36;;;;;;;7.40;5.95;;;23.90;7.30;;;;;;10397965;28;20535;-77
2022/08/18 22:56:58;;;;;;;9.65;6.25;;;23.80;79.20;;;;;;10350706;28;20501;-76
2022/08/18 23:02:20;;;;;;;8.48;7.18;;;23.80;99.90;;;;;;10360737;28;20202;-80
2022/08/18 23:07:42;;;;;;;11.43;7.22;;;23.80;99.90;;;;;;10302860;28;20195;-76
2022/08/18 23:13:03;;;;;;;8.00;6.68;;;23.80;99.90;;;;;;10320106;28;20218;-77
2022/08/18 23:18:25;;;;;;;8.80;6.63;;;23.70;99.90;;;;;;10320014;28;20508;-76
2022/08/18 23:23:47;;;;;;;7.63;6.50;;;23.60;99.90;;;;;;10319387;28;20278;-77
2022/08/18 23:29:10;;;;;;;8.38;6.72;;;23.50;99.90;;;;;;10323562;28;20189;-79
2022/08/18 23:34:33;;;;;;;9.18;6.80;;;23.50;1.00;;;;;;10400080;28;20219;-78
2022/08/18 23:39:54;;;;;;;10.73;7.68;;;23.40;1.00;;;;;;10399700;28;20197;-77
2022/08/18 23:45:19;;;;;;;7.93;7.13;;;23.40;1.00;;;;;;10385287;28;20284;-77
2022/08/18 23:50:43;;;;;;;7.50;6.43;;;23.40;55.00;;;;;;10399610;28;20260;-80
2022/08/18 23:56:05;;;;;;;8.75;7.43;;;23.40;99.90;;;;;;10327796;28;20279;-78
